This is the latest recevied weather packets stored in our database for station/object VA3PC-13. If no packets are shown the sender has not sent any weather packets the latest 10 day(s).
| Time | Temp. | Humidity | Pressure | Rain* | Wind** | Luminosity | Snow |
|---|---|---|---|---|---|---|---|
| 1777661120 | 5° C | 70% | 981.9 hPa | 0 mm | - | 361 W/m² | - |
| 1777660519 | 4.44° C | 73% | 982.4 hPa | 0 mm | - | 249 W/m² | - |
| 1777656339 | 4.44° C | 69% | 983 hPa | 0 mm | - | 142 W/m² | - |
| 1777648520 | 2.78° C | 75% | 983.3 hPa | 0 mm | - | 370 W/m² | - |
| 1777646117 | 2.22° C | 76% | 984 hPa | 0 mm | - | 208 W/m² | - |
| 1777645518 | 2.22° C | 74% | 983.9 hPa | 0 mm | - | 194 W/m² | - |
| 1777643718 | 2.22° C | 71% | 983.9 hPa | 0 mm | - | 207 W/m² | - |
| 1777643118 | 2.22° C | 70% | 983.9 hPa | 0 mm | - | 188 W/m² | - |
| 1777642519 | 2.22° C | 70% | 983.9 hPa | 0 mm | - | 192 W/m² | - |
| 1777641339 | 2.22° C | 69% | 983.9 hPa | 0 mm | - | 186 W/m² | - |
| 1777637119 | 1.11° C | 71% | 983.8 hPa | 0 mm | - | 67 W/m² | - |
| 1777631142 | 0.56° C | 73% | 983.7 hPa | 0 mm | - | 7 W/m² | - |
| 1777629318 | 0.56° C | 74% | 983.8 hPa | 0 mm | - | 1 W/m² | - |
| 1777628118 | 0.56° C | 73% | 983.8 hPa | 0 mm | - | 0 W/m² | - |
| 1777627519 | 0.56° C | 74% | 983.8 hPa | 0 mm | - | 0 W/m² | - |
| 1777625719 | 1.11° C | 73% | 983.8 hPa | 0 mm | - | 0 W/m² | - |
| 1777621520 | 1.67° C | 75% | 983.8 hPa | 0 mm | - | 0 W/m² | - |
| 1777620918 | 1.67° C | 75% | 983.7 hPa | 0 mm | - | 0 W/m² | - |
| 1777619720 | 1.67° C | 74% | 983.8 hPa | 0 mm | - | 0 W/m² | - |
| 1777617937 | 1.67° C | 73% | 984 hPa | 0 mm | - | 0 W/m² | - |
| 1777614918 | 2.22° C | 70% | 984 hPa | 0 mm | - | 0 W/m² | - |
| 1777611319 | 2.22° C | 69% | 984.2 hPa | 0 mm | - | 0 W/m² | - |
| 1777592120 | 6.67° C | 55% | 983.5 hPa | 0 mm | - | 22 W/m² | - |
| 1777586739 | 7.22° C | 49% | 983 hPa | 0 mm | - | 122 W/m² | - |
| 1777586118 | 7.22° C | 49% | 982.9 hPa | 0 mm | - | 127 W/m² | - |
* Rain latest hour (hover to see other rain measurements)
** Current wind speed in m/s (hover to see current wind gust speed)